createdAt,value
2023-05-01T00:00:10.391Z,937.03
2023-05-01T00:01:10.439Z,937.00
2023-05-01T00:02:10.410Z,937.03
2023-05-01T00:03:10.620Z,936.99
2023-05-01T00:04:10.622Z,937.01
2023-05-01T00:05:10.450Z,937.00
2023-05-01T00:06:10.417Z,936.93
2023-05-01T00:07:10.338Z,936.93
2023-05-01T00:08:10.322Z,936.88
2023-05-01T00:09:10.321Z,936.90
2023-05-01T00:10:10.371Z,936.89
2023-05-01T00:11:10.289Z,936.86
2023-05-01T00:12:10.311Z,936.91
2023-05-01T00:13:10.298Z,936.89
2023-05-01T00:14:10.307Z,936.89
2023-05-01T00:15:10.256Z,936.83
2023-05-01T00:16:10.322Z,936.83
2023-05-01T00:17:10.226Z,936.83
2023-05-01T00:18:10.248Z,936.79
2023-05-01T00:19:10.271Z,936.79
2023-05-01T00:20:10.215Z,936.81
2023-05-01T00:21:10.165Z,936.76
2023-05-01T00:22:10.162Z,936.77
2023-05-01T00:23:10.159Z,936.75
2023-05-01T00:24:10.293Z,936.74
2023-05-01T00:25:10.189Z,936.73
2023-05-01T00:26:10.142Z,936.70
2023-05-01T00:27:10.143Z,936.72
2023-05-01T00:28:10.099Z,936.72
2023-05-01T00:29:10.107Z,936.68
2023-05-01T00:30:10.123Z,936.69
2023-05-01T00:31:10.093Z,936.72
2023-05-01T00:32:10.166Z,936.69
2023-05-01T00:33:10.241Z,936.73
2023-05-01T00:34:10.044Z,936.65
2023-05-01T00:35:10.047Z,936.68
2023-05-01T00:36:10.093Z,936.71
2023-05-01T00:37:10.048Z,936.64
2023-05-01T00:38:09.982Z,936.68
2023-05-01T00:39:09.992Z,936.66
2023-05-01T00:40:10.005Z,936.64
2023-05-01T00:41:09.956Z,936.60
2023-05-01T00:42:09.998Z,936.60
2023-05-01T00:43:09.958Z,936.66
2023-05-01T00:44:09.943Z,936.61
2023-05-01T00:45:09.966Z,936.61
2023-05-01T00:46:10.006Z,936.60
2023-05-01T00:47:09.941Z,936.53
2023-05-01T00:48:10.112Z,936.61
2023-05-01T00:49:09.863Z,936.56
2023-05-01T00:50:09.870Z,936.56
2023-05-01T00:51:09.854Z,936.53
2023-05-01T00:52:09.879Z,936.56
2023-05-01T00:53:09.865Z,936.51
2023-05-01T00:54:09.902Z,936.51
2023-05-01T00:55:09.818Z,936.46
2023-05-01T00:56:09.809Z,936.45
2023-05-01T00:57:09.787Z,936.44
2023-05-01T00:58:09.797Z,936.45
2023-05-01T00:59:09.802Z,936.45
2023-05-01T02:18:34.974Z,936.17
2023-05-01T02:19:31.189Z,936.13
2023-05-01T02:20:31.181Z,936.14
2023-05-01T02:21:31.176Z,936.11
2023-05-01T02:22:31.173Z,936.12
2023-05-01T02:23:31.183Z,936.14
2023-05-01T02:24:31.194Z,936.09
2023-05-01T02:25:31.216Z,936.09
2023-05-01T02:26:31.123Z,936.14
2023-05-01T02:27:31.126Z,936.08
2023-05-01T02:28:31.098Z,936.08
2023-05-01T02:29:31.134Z,936.10
2023-05-01T02:30:31.069Z,936.07
2023-05-01T02:31:31.142Z,936.13
2023-05-01T02:32:31.118Z,936.08
2023-05-01T02:33:31.056Z,936.07
2023-05-01T02:34:31.059Z,936.09
2023-05-01T02:35:31.094Z,936.07
2023-05-01T02:36:31.035Z,936.06
2023-05-01T02:37:31.012Z,936.09
2023-05-01T02:38:31.008Z,936.10
2023-05-01T02:39:30.988Z,936.05
2023-05-01T02:40:31.005Z,936.00
2023-05-01T02:41:31.025Z,936.01
2023-05-01T02:42:30.950Z,936.01
2023-05-01T02:43:30.950Z,936.01
2023-05-01T02:44:30.925Z,935.98
2023-05-01T02:45:30.943Z,935.98
2023-05-01T02:46:30.997Z,935.99
2023-05-01T02:47:30.960Z,935.97
2023-05-01T02:48:30.897Z,935.93
2023-05-01T02:49:30.881Z,935.94
2023-05-01T02:50:30.891Z,935.92
2023-05-01T02:51:30.855Z,935.92
2023-05-01T02:52:30.876Z,935.90
2023-05-01T02:53:30.835Z,935.96
2023-05-01T02:54:30.826Z,935.91
2023-05-01T02:55:30.813Z,935.88
2023-05-01T02:56:30.822Z,935.88
2023-05-01T02:57:30.873Z,935.86
2023-05-01T02:58:30.780Z,935.86
2023-05-01T02:59:30.780Z,935.89
2023-05-01T03:00:30.824Z,935.87
2023-05-01T03:01:30.810Z,935.90
2023-05-01T03:02:30.735Z,935.86
2023-05-01T03:03:30.806Z,935.90
2023-05-01T03:04:30.803Z,935.91
2023-05-01T03:05:30.696Z,935.91
2023-05-01T03:06:30.789Z,935.90
2023-05-01T03:07:30.692Z,935.92
2023-05-01T03:08:30.703Z,935.93
2023-05-01T03:09:30.695Z,935.89
2023-05-01T03:10:30.657Z,935.88
2023-05-01T03:11:30.664Z,935.88
2023-05-01T03:12:30.640Z,935.90
2023-05-01T03:13:30.696Z,935.86
2023-05-01T03:14:30.605Z,935.86
2023-05-01T03:15:30.597Z,935.87
2023-05-01T03:16:30.680Z,935.86
2023-05-01T03:17:30.654Z,935.87
2023-05-01T03:18:30.677Z,935.85
2023-05-01T03:19:30.540Z,935.87
2023-05-01T03:20:30.558Z,935.87
2023-05-01T03:21:30.526Z,935.85
2023-05-01T03:22:30.545Z,935.83
2023-05-01T03:23:30.506Z,935.80
2023-05-01T03:24:30.556Z,935.77
2023-05-01T03:25:30.491Z,935.80
2023-05-01T03:26:30.491Z,935.80
2023-05-01T03:27:30.474Z,935.80
2023-05-01T03:28:30.481Z,935.78
2023-05-01T03:29:30.539Z,935.77
2023-05-01T03:30:30.448Z,935.76
2023-05-01T03:31:30.472Z,935.77
2023-05-01T03:32:30.488Z,935.76
2023-05-01T03:33:30.402Z,935.74
2023-05-01T03:34:30.589Z,935.76
2023-05-01T03:35:30.436Z,935.72
2023-05-01T03:36:30.443Z,935.70
2023-05-01T03:37:30.361Z,935.74
2023-05-01T03:38:30.365Z,935.70
2023-05-01T03:39:30.336Z,935.75
2023-05-01T03:40:30.345Z,935.71
2023-05-01T03:41:30.323Z,935.77
2023-05-01T03:42:30.396Z,935.72
2023-05-01T03:43:30.305Z,935.72
2023-05-01T03:44:30.296Z,935.72
2023-05-01T03:45:30.276Z,935.71
2023-05-01T03:46:30.354Z,935.72
2023-05-01T03:47:30.276Z,935.71
2023-05-01T03:48:30.293Z,935.66
2023-05-01T03:49:30.235Z,935.67
2023-05-01T03:50:30.230Z,935.69
2023-05-01T03:51:30.206Z,935.72
2023-05-01T03:52:30.215Z,935.60
2023-05-01T03:53:30.294Z,935.61
2023-05-01T03:54:30.263Z,935.64
2023-05-01T03:55:30.169Z,935.59
2023-05-01T03:56:30.159Z,935.58
2023-05-01T03:57:30.169Z,935.60
2023-05-01T03:58:30.157Z,935.60
2023-05-01T03:59:30.136Z,935.64
2023-05-01T04:00:30.139Z,935.61
2023-05-01T04:01:30.115Z,935.59
2023-05-01T04:02:30.236Z,935.59
2023-05-01T04:03:30.160Z,935.57
2023-05-01T04:04:30.331Z,935.61
2023-05-01T04:05:30.070Z,935.57
2023-05-01T04:06:30.112Z,935.54
2023-05-01T04:07:30.151Z,935.56
2023-05-01T04:08:30.063Z,935.57
2023-05-01T04:09:30.034Z,935.57
2023-05-01T04:10:30.037Z,935.51
2023-05-01T04:11:30.027Z,935.54
2023-05-01T04:12:30.046Z,935.54
2023-05-01T04:13:29.979Z,935.52
2023-05-01T04:14:29.998Z,935.56
2023-05-01T04:15:29.953Z,935.54
2023-05-01T04:16:29.973Z,935.56
2023-05-01T04:17:29.994Z,935.57
2023-05-01T04:18:29.934Z,935.56
2023-05-01T04:19:29.936Z,935.54
2023-05-01T04:20:29.989Z,935.58
2023-05-01T04:21:29.895Z,935.57
2023-05-01T04:22:29.907Z,935.57
2023-05-01T04:23:29.875Z,935.59
2023-05-01T04:24:29.884Z,935.57
2023-05-01T04:25:29.887Z,935.63
2023-05-01T04:26:29.931Z,935.65
2023-05-01T04:27:29.872Z,935.64
2023-05-01T04:28:29.817Z,935.63
2023-05-01T04:29:29.820Z,935.67
2023-05-01T04:30:29.805Z,935.65
2023-05-01T04:31:29.847Z,935.64
2023-05-01T04:32:29.829Z,935.69
2023-05-01T04:33:29.808Z,935.66
2023-05-01T04:34:29.779Z,935.68
2023-05-01T04:35:29.753Z,935.66
2023-05-01T04:36:29.768Z,935.69
2023-05-01T04:37:29.752Z,935.66
2023-05-01T04:38:29.753Z,935.70
2023-05-01T04:39:29.708Z,935.68
2023-05-01T04:40:29.691Z,935.72
2023-05-01T04:41:29.862Z,935.73
2023-05-01T04:42:29.711Z,935.77
2023-05-01T04:43:29.756Z,935.74
2023-05-01T04:44:29.654Z,935.74
2023-05-01T04:45:29.644Z,935.79
2023-05-01T04:46:29.687Z,935.80
2023-05-01T04:47:29.665Z,935.80
2023-05-01T04:48:29.659Z,935.80
2023-05-01T04:49:29.605Z,935.76
2023-05-01T04:50:29.621Z,935.83
2023-05-01T04:51:29.648Z,935.78
2023-05-01T04:52:29.570Z,935.80
2023-05-01T04:53:29.570Z,935.83
2023-05-01T04:54:29.570Z,935.80
2023-05-01T04:55:31.102Z,935.82
2023-05-01T04:56:29.523Z,935.79
2023-05-01T04:57:29.550Z,935.78
2023-05-01T04:58:29.635Z,935.79
2023-05-01T04:59:29.526Z,935.81
2023-05-01T05:00:29.638Z,935.77
2023-05-01T05:01:29.557Z,935.82
2023-05-01T05:02:29.542Z,935.82
2023-05-01T05:03:29.581Z,935.81
2023-05-01T05:04:29.446Z,935.82
2023-05-01T05:05:29.435Z,935.81
2023-05-01T05:06:29.511Z,935.80
2023-05-01T05:07:29.421Z,935.87
2023-05-01T05:08:29.487Z,935.86
2023-05-01T05:09:29.402Z,935.87
2023-05-01T05:10:29.385Z,935.92
2023-05-01T05:11:29.371Z,935.86
2023-05-01T05:12:29.387Z,935.87
2023-05-01T05:13:29.752Z,935.89
2023-05-01T05:14:29.394Z,935.89
2023-05-01T05:15:29.626Z,935.89
2023-05-01T05:16:29.357Z,935.88
2023-05-01T05:17:29.449Z,935.92
2023-05-01T05:18:29.296Z,935.91
2023-05-01T05:19:29.422Z,935.90
2023-05-01T05:20:29.412Z,935.88
2023-05-01T05:21:29.366Z,935.93
2023-05-01T05:22:29.245Z,935.90
2023-05-01T05:23:29.344Z,935.93
2023-05-01T05:24:29.265Z,935.93
2023-05-01T05:25:29.241Z,935.95
2023-05-01T05:26:29.224Z,935.90
2023-05-01T05:27:29.231Z,935.92
2023-05-01T05:28:29.247Z,935.91
2023-05-01T05:29:29.183Z,935.93
2023-05-01T05:30:29.223Z,935.91
2023-05-01T05:31:29.199Z,935.94
2023-05-01T05:32:29.207Z,935.88
2023-05-01T05:33:29.187Z,935.85
2023-05-01T05:34:29.158Z,935.86
2023-05-01T05:35:29.131Z,935.92
2023-05-01T05:36:29.104Z,935.87
2023-05-01T05:37:29.121Z,935.90
2023-05-01T05:38:29.100Z,935.92
2023-05-01T05:39:29.085Z,935.92
2023-05-01T05:40:29.096Z,935.91
2023-05-01T05:41:29.109Z,935.92
2023-05-01T05:42:29.063Z,935.83
2023-05-01T05:43:29.043Z,935.87
2023-05-01T05:44:29.072Z,935.88
2023-05-01T05:45:29.093Z,935.89
2023-05-01T05:46:33.948Z,935.85
2023-05-01T05:47:29.006Z,935.88
2023-05-01T05:48:29.300Z,935.87
2023-05-01T05:49:28.983Z,935.87
2023-05-01T05:50:29.116Z,935.86
2023-05-01T05:51:28.982Z,935.89
2023-05-01T05:52:28.986Z,935.86
2023-05-01T05:53:29.083Z,935.88
2023-05-01T05:54:28.916Z,935.91
2023-05-01T05:55:28.934Z,935.91
2023-05-01T05:56:28.938Z,935.91
2023-05-01T05:57:28.901Z,935.88
2023-05-01T05:58:28.891Z,935.92
2023-05-01T05:59:28.866Z,935.88
2023-05-01T06:00:28.856Z,935.90
2023-05-01T06:01:28.889Z,935.85
2023-05-01T06:02:28.924Z,935.87
2023-05-01T06:03:28.956Z,935.87
2023-05-01T06:04:28.841Z,935.88
2023-05-01T06:05:28.955Z,935.87
2023-05-01T06:06:28.829Z,935.89
2023-05-01T06:07:28.826Z,935.89
2023-05-01T06:08:28.903Z,935.88
2023-05-01T06:09:28.759Z,935.88
2023-05-01T06:10:28.792Z,935.86
2023-05-01T06:11:28.771Z,935.89
2023-05-01T06:12:28.761Z,935.88
2023-05-01T06:13:28.771Z,935.88
2023-05-01T06:14:28.724Z,935.88
2023-05-01T06:15:28.731Z,935.85
2023-05-01T06:16:28.799Z,935.86
2023-05-01T06:17:28.692Z,935.84
2023-05-01T06:18:28.728Z,935.83
2023-05-01T06:19:28.669Z,935.82
2023-05-01T06:20:28.704Z,935.83
2023-05-01T06:21:28.654Z,935.82
2023-05-01T06:22:28.624Z,935.85
2023-05-01T06:23:28.611Z,935.85
2023-05-01T06:24:28.653Z,935.86
2023-05-01T06:25:28.611Z,935.82
2023-05-01T06:26:28.687Z,935.82
2023-05-01T06:27:28.568Z,935.85
2023-05-01T06:28:28.622Z,935.87
2023-05-01T06:29:28.601Z,935.86
2023-05-01T06:30:28.683Z,935.85
2023-05-01T06:31:29.436Z,935.84
2023-05-01T06:32:28.593Z,935.89
2023-05-01T06:33:28.606Z,935.83
2023-05-01T06:34:28.570Z,935.87
2023-05-01T06:35:28.505Z,935.84
2023-05-01T06:36:28.585Z,935.84
2023-05-01T06:37:28.538Z,935.85
2023-05-01T06:38:28.452Z,935.88
2023-05-01T06:39:28.463Z,935.86
2023-05-01T06:40:28.624Z,935.84
2023-05-01T06:41:28.464Z,935.85
2023-05-01T06:42:28.464Z,935.85
2023-05-01T06:43:28.410Z,935.90
2023-05-01T06:44:29.111Z,935.87
2023-05-01T06:45:28.462Z,935.88
2023-05-01T06:46:28.416Z,935.85
2023-05-01T06:47:28.398Z,935.89
2023-05-01T06:48:28.362Z,935.88
2023-05-01T06:49:28.377Z,935.88
2023-05-01T06:50:28.346Z,935.84
2023-05-01T06:51:28.336Z,935.87
2023-05-01T06:52:28.303Z,935.96
2023-05-01T06:53:28.431Z,935.91
2023-05-01T06:54:28.308Z,935.93
2023-05-01T06:55:28.300Z,935.90
2023-05-01T06:56:28.406Z,935.94
2023-05-01T06:57:28.268Z,935.92
2023-05-01T06:58:28.252Z,935.92
2023-05-01T06:59:28.230Z,935.93
2023-05-01T07:00:28.306Z,935.97
2023-05-01T07:01:28.325Z,936.00
2023-05-01T07:02:28.268Z,935.95
2023-05-01T07:03:28.350Z,935.96
2023-05-01T07:04:28.176Z,936.01
2023-05-01T07:05:28.223Z,935.97
2023-05-01T07:06:28.414Z,935.97
2023-05-01T07:07:28.159Z,936.01
2023-05-01T07:08:28.187Z,936.03
2023-05-01T07:09:28.126Z,935.97
2023-05-01T07:10:28.149Z,935.97
2023-05-01T07:11:28.138Z,935.98
2023-05-01T07:12:28.095Z,936.02
2023-05-01T07:13:28.163Z,936.01
2023-05-01T07:14:28.113Z,935.97
2023-05-01T07:15:28.057Z,935.94
2023-05-01T07:16:28.086Z,935.97
2023-05-01T07:17:28.103Z,935.94
2023-05-01T07:18:28.033Z,935.91
2023-05-01T07:20:45.304Z,935.91
2023-05-01T07:21:45.320Z,935.89
2023-05-01T07:22:45.268Z,935.92
2023-05-01T07:23:45.258Z,935.93
2023-05-01T07:24:45.334Z,935.94
2023-05-01T07:25:45.259Z,935.94
2023-05-01T07:26:45.226Z,935.92
2023-05-01T07:27:45.245Z,935.92
2023-05-01T07:28:45.211Z,935.94
2023-05-01T07:29:45.203Z,935.91
2023-05-01T07:30:45.291Z,935.92
2023-05-01T07:31:45.304Z,935.95
2023-05-01T07:32:45.327Z,935.86
2023-05-01T07:33:45.247Z,935.95
2023-05-01T07:34:45.148Z,935.93
2023-05-01T07:35:45.131Z,935.95
2023-05-01T07:36:45.151Z,935.95
2023-05-01T07:37:45.221Z,935.94
2023-05-01T07:38:45.109Z,935.93
2023-05-01T07:39:45.160Z,935.99
2023-05-01T07:40:45.120Z,935.96
2023-05-01T07:41:45.093Z,935.96
2023-05-01T07:42:45.051Z,935.98
2023-05-01T07:43:45.077Z,935.99
2023-05-01T07:44:45.073Z,935.98
2023-05-01T07:45:45.044Z,936.00
2023-05-01T07:46:49.917Z,936.00
2023-05-01T07:47:45.052Z,936.04
2023-05-01T07:48:45.031Z,936.02
2023-05-01T07:49:44.974Z,936.04
2023-05-01T07:50:44.994Z,936.03
2023-05-01T07:51:44.949Z,936.07
2023-05-01T07:52:44.964Z,936.04
2023-05-01T07:53:44.955Z,936.08
2023-05-01T07:54:44.979Z,936.04
2023-05-01T07:55:44.929Z,936.07
2023-05-01T07:56:44.915Z,936.08
2023-05-01T07:57:44.910Z,936.05
2023-05-01T07:58:44.880Z,936.08
2023-05-01T07:59:44.967Z,936.12
2023-05-01T08:00:44.899Z,936.11
2023-05-01T08:01:44.867Z,936.11
2023-05-01T08:02:44.916Z,936.09
2023-05-01T08:03:45.062Z,936.08
2023-05-01T08:04:44.853Z,936.09
2023-05-01T08:05:44.809Z,936.11
2023-05-01T08:06:44.928Z,936.10
2023-05-01T08:07:44.923Z,936.14
2023-05-01T08:08:44.801Z,936.11
2023-05-01T08:09:44.933Z,936.09
2023-05-01T08:10:44.779Z,936.13
2023-05-01T08:11:44.775Z,936.12
2023-05-01T08:12:44.740Z,936.19
2023-05-01T08:13:44.761Z,936.18
2023-05-01T08:14:44.715Z,936.22
2023-05-01T08:15:44.743Z,936.21
2023-05-01T08:16:44.857Z,936.22
2023-05-01T08:17:44.703Z,936.23
2023-05-01T08:18:44.848Z,936.25
2023-05-01T08:19:44.668Z,936.24
2023-05-01T08:20:44.661Z,936.29
2023-05-01T08:21:44.752Z,936.26
2023-05-01T08:22:44.630Z,936.29
2023-05-01T08:23:44.694Z,936.30
2023-05-01T08:24:44.609Z,936.30
2023-05-01T08:25:44.739Z,936.27
2023-05-01T08:26:44.598Z,936.28
2023-05-01T08:27:44.591Z,936.27
2023-05-01T08:28:44.616Z,936.27
2023-05-01T08:29:44.593Z,936.25
2023-05-01T08:30:44.576Z,936.25
2023-05-01T08:31:44.590Z,936.26
2023-05-01T08:32:44.601Z,936.26
2023-05-01T08:33:44.554Z,936.27
2023-05-01T08:34:44.521Z,936.31
2023-05-01T08:35:44.577Z,936.24
2023-05-01T08:36:44.500Z,936.22
2023-05-01T08:37:44.469Z,936.21
2023-05-01T08:38:44.538Z,936.28
2023-05-01T08:39:44.493Z,936.28
2023-05-01T08:40:44.445Z,936.30
2023-05-01T08:41:44.447Z,936.30
2023-05-01T08:42:44.466Z,936.29
2023-05-01T08:43:44.456Z,936.28
2023-05-01T08:44:44.446Z,936.28
2023-05-01T08:45:44.414Z,936.32
2023-05-01T08:46:44.479Z,936.33
2023-05-01T08:47:44.374Z,936.28
2023-05-01T08:48:44.394Z,936.30
2023-05-01T08:49:44.397Z,936.27
2023-05-01T08:50:44.328Z,936.28
2023-05-01T08:51:44.336Z,936.27
2023-05-01T08:52:44.437Z,936.26
2023-05-01T08:53:44.330Z,936.30
2023-05-01T08:54:44.307Z,936.30
2023-05-01T08:55:44.338Z,936.29
2023-05-01T08:56:44.328Z,936.30
2023-05-01T08:57:44.282Z,936.29
2023-05-01T08:58:44.257Z,936.29
2023-05-01T08:59:44.261Z,936.29
2023-05-01T09:00:44.266Z,936.33
2023-05-01T09:01:44.276Z,936.31
2023-05-01T09:02:44.215Z,936.35
2023-05-01T09:03:44.284Z,936.34
2023-05-01T09:04:44.210Z,936.33
2023-05-01T09:05:44.217Z,936.34
2023-05-01T09:06:44.245Z,936.33
2023-05-01T09:07:44.146Z,936.35
2023-05-01T09:08:44.139Z,936.34
2023-05-01T09:09:44.136Z,936.33
2023-05-01T09:10:44.116Z,936.33
2023-05-01T09:11:44.184Z,936.33
2023-05-01T09:12:44.119Z,936.40
2023-05-01T09:13:44.154Z,936.36
2023-05-01T09:14:44.072Z,936.34
2023-05-01T09:15:44.115Z,936.36
2023-05-01T09:16:44.114Z,936.31
2023-05-01T09:17:44.144Z,936.34
2023-05-01T09:18:44.064Z,936.39
2023-05-01T09:19:44.014Z,936.39
2023-05-01T09:20:44.004Z,936.32
2023-05-01T09:21:44.012Z,936.37
2023-05-01T09:22:44.061Z,936.37
2023-05-01T09:23:43.998Z,936.35
2023-05-01T09:24:43.991Z,936.36
2023-05-01T09:25:43.947Z,936.37
2023-05-01T09:26:43.962Z,936.40
2023-05-01T09:27:43.978Z,936.40
2023-05-01T09:28:44.023Z,936.38
2023-05-01T09:29:43.944Z,936.38
2023-05-01T09:30:43.914Z,936.38
2023-05-01T09:31:43.962Z,936.41
2023-05-01T09:32:43.979Z,936.41
2023-05-01T09:33:43.905Z,936.39
2023-05-01T09:34:43.872Z,936.38
2023-05-01T09:35:43.940Z,936.40
2023-05-01T09:36:43.939Z,936.41
2023-05-01T09:37:43.842Z,936.41
2023-05-01T09:38:43.869Z,936.39
2023-05-01T09:39:43.809Z,936.41
2023-05-01T09:40:43.802Z,936.39
2023-05-01T09:41:43.801Z,936.40
2023-05-01T09:42:43.801Z,936.41
2023-05-01T09:43:43.858Z,936.37
2023-05-01T09:44:43.752Z,936.40
2023-05-01T09:45:44.022Z,936.36
2023-05-01T09:46:43.911Z,936.38
2023-05-01T09:47:43.844Z,936.42
2023-05-01T09:48:43.716Z,936.44
2023-05-01T09:49:43.750Z,936.46
2023-05-01T09:50:43.750Z,936.43
2023-05-01T09:51:43.698Z,936.48
2023-05-01T09:52:43.740Z,936.43
2023-05-01T09:53:43.649Z,936.42
2023-05-01T09:54:43.658Z,936.43
2023-05-01T09:55:43.668Z,936.48
2023-05-01T09:56:43.654Z,936.42
2023-05-01T09:57:43.608Z,936.47
2023-05-01T09:58:43.669Z,936.47
2023-05-01T09:59:43.601Z,936.50
2023-05-01T10:00:43.617Z,936.52
2023-05-01T10:01:43.861Z,936.44
2023-05-01T10:02:43.672Z,936.46
2023-05-01T10:03:43.666Z,936.45
2023-05-01T10:04:43.554Z,936.44
2023-05-01T10:05:43.626Z,936.47
2023-05-01T10:06:43.653Z,936.52
2023-05-01T10:07:43.533Z,936.41
2023-05-01T10:08:43.558Z,936.42
2023-05-01T10:09:43.530Z,936.48
2023-05-01T10:10:43.510Z,936.42
2023-05-01T10:11:43.562Z,936.46
2023-05-01T10:12:43.472Z,936.48
2023-05-01T10:13:43.507Z,936.43
2023-05-01T10:14:43.452Z,936.40
2023-05-01T10:15:43.433Z,936.41
2023-05-01T10:16:43.512Z,936.42
2023-05-01T10:17:43.643Z,936.47
2023-05-01T10:18:43.402Z,936.43
2023-05-01T10:19:43.392Z,936.46
2023-05-01T10:20:43.470Z,936.48
2023-05-01T10:21:43.472Z,936.48
2023-05-01T10:22:43.357Z,936.49
2023-05-01T10:23:43.346Z,936.45
2023-05-01T10:24:43.349Z,936.47
2023-05-01T10:25:43.326Z,936.49
2023-05-01T10:26:43.327Z,936.51
2023-05-01T10:27:43.363Z,936.50
2023-05-01T10:28:43.294Z,936.49
2023-05-01T10:29:43.304Z,936.46
2023-05-01T10:30:43.367Z,936.48
2023-05-01T10:31:43.328Z,936.49
2023-05-01T10:32:43.331Z,936.48
2023-05-01T10:33:43.246Z,936.49
2023-05-01T10:34:43.278Z,936.54
2023-05-01T10:35:43.270Z,936.49
2023-05-01T10:36:43.204Z,936.49
2023-05-01T10:37:43.232Z,936.47
2023-05-01T10:38:43.184Z,936.51
2023-05-01T10:39:43.170Z,936.46
2023-05-01T10:40:43.182Z,936.48
2023-05-01T10:41:43.195Z,936.45
2023-05-01T10:42:43.148Z,936.43
2023-05-01T10:43:43.273Z,936.44
2023-05-01T10:44:43.166Z,936.49
2023-05-01T10:45:43.107Z,936.41
2023-05-01T10:46:43.184Z,936.44
2023-05-01T10:47:43.130Z,936.42
2023-05-01T10:48:43.087Z,936.41
2023-05-01T10:49:43.146Z,936.41
2023-05-01T10:50:43.083Z,936.43
2023-05-01T10:51:43.035Z,936.43
2023-05-01T10:52:43.031Z,936.38
2023-05-01T10:53:43.038Z,936.37
2023-05-01T10:54:43.033Z,936.40
2023-05-01T10:55:43.035Z,936.34
2023-05-01T10:56:43.308Z,936.36
2023-05-01T10:57:43.007Z,936.32
2023-05-01T10:58:42.970Z,936.27
2023-05-01T10:59:43.027Z,936.25
2023-05-01T11:00:42.969Z,936.26
2023-05-01T11:01:43.053Z,936.27
2023-05-01T11:02:43.013Z,936.24
2023-05-01T11:03:42.924Z,936.25
2023-05-01T11:04:42.938Z,936.26
2023-05-01T11:05:43.136Z,936.25
2023-05-01T11:06:43.236Z,936.22
2023-05-01T11:07:42.892Z,936.29
2023-05-01T11:08:43.628Z,936.25
2023-05-01T11:09:42.855Z,936.25
2023-05-01T11:10:42.861Z,936.22
2023-05-01T11:11:42.954Z,936.20
2023-05-01T11:12:42.897Z,936.23
2023-05-01T11:13:42.843Z,936.20
2023-05-01T11:14:42.801Z,936.14
2023-05-01T11:15:42.829Z,936.18
2023-05-01T11:16:53.807Z,936.14
2023-05-01T11:17:43.264Z,936.16
2023-05-01T11:18:42.896Z,936.17
2023-05-01T11:19:42.777Z,936.16
2023-05-01T11:20:42.756Z,936.14
2023-05-01T11:21:42.811Z,936.15
2023-05-01T11:22:42.733Z,936.11
2023-05-01T11:23:42.739Z,936.13
2023-05-01T11:24:42.766Z,936.12
2023-05-01T11:25:42.706Z,936.10
2023-05-01T11:26:43.459Z,936.09
2023-05-01T11:27:42.931Z,936.15
2023-05-01T11:28:42.693Z,936.05
2023-05-01T11:29:42.640Z,936.12
2023-05-01T11:30:42.674Z,936.03
2023-05-01T11:31:42.778Z,936.08
2023-05-01T11:32:42.643Z,936.06
2023-05-01T11:33:42.603Z,936.06
2023-05-01T11:34:42.802Z,936.05
2023-05-01T11:35:42.881Z,936.05
2023-05-01T11:36:42.583Z,936.02
2023-05-01T11:37:42.604Z,936.03
2023-05-01T11:38:42.577Z,936.03
2023-05-01T11:39:42.650Z,936.04
2023-05-01T11:40:42.519Z,936.04
2023-05-01T11:41:42.571Z,936.06
2023-05-01T11:42:42.494Z,936.05
2023-05-01T11:43:42.523Z,936.07
2023-05-01T11:44:42.596Z,936.06
2023-05-01T11:45:42.560Z,936.05
2023-05-01T11:46:53.161Z,936.02
2023-05-01T11:47:42.473Z,936.06
2023-05-01T11:48:42.452Z,936.03
2023-05-01T11:49:42.528Z,936.11
2023-05-01T11:50:42.457Z,936.07
2023-05-01T11:51:42.475Z,936.09
2023-05-01T11:52:42.413Z,936.11
2023-05-01T11:53:42.428Z,936.11
2023-05-01T11:54:42.387Z,936.12
2023-05-01T11:55:42.382Z,936.04
2023-05-01T11:56:42.636Z,936.07
2023-05-01T11:57:42.447Z,936.06
2023-05-01T11:58:42.382Z,936.01
2023-05-01T11:59:42.324Z,936.04
2023-05-01T12:00:42.357Z,936.04
2023-05-01T12:01:42.360Z,936.02
2023-05-01T12:02:43.048Z,936.00
2023-05-01T12:03:43.098Z,936.01
2023-05-01T12:04:42.294Z,936.07
2023-05-01T12:05:42.305Z,936.00
2023-05-01T12:06:42.341Z,936.07
2023-05-01T12:07:42.295Z,936.11
2023-05-01T12:08:42.231Z,936.10
2023-05-01T12:09:42.254Z,936.12
2023-05-01T12:10:42.524Z,936.13
2023-05-01T12:11:42.258Z,936.10
2023-05-01T12:12:42.250Z,936.11
2023-05-01T12:13:42.190Z,936.11
2023-05-01T12:14:42.161Z,936.12
2023-05-01T12:15:42.284Z,936.13
2023-05-01T12:16:57.095Z,936.10
2023-05-01T12:17:42.165Z,936.08
2023-05-01T12:18:42.188Z,936.07
2023-05-01T12:19:42.111Z,936.05
2023-05-01T12:20:42.135Z,936.08
2023-05-01T12:21:49.687Z,936.04
2023-05-01T12:22:42.073Z,936.04
2023-05-01T12:23:42.090Z,936.05
2023-05-01T12:24:42.109Z,936.04
2023-05-01T12:25:42.226Z,936.00
2023-05-01T12:26:42.129Z,936.02
2023-05-01T12:27:42.048Z,936.03
2023-05-01T12:28:42.058Z,936.03
2023-05-01T12:29:42.040Z,936.05
2023-05-01T12:30:42.133Z,936.09
2023-05-01T12:31:42.044Z,936.07
2023-05-01T12:32:42.016Z,936.06
2023-05-01T12:33:42.082Z,936.07
2023-05-01T12:34:42.076Z,936.06
2023-05-01T12:35:41.932Z,936.08
2023-05-01T12:36:42.002Z,936.03
2023-05-01T12:37:42.070Z,936.05
2023-05-01T12:38:41.941Z,936.01
2023-05-01T12:39:41.929Z,936.04
2023-05-01T12:40:41.885Z,936.01
2023-05-01T12:41:42.133Z,936.01
2023-05-01T12:42:41.896Z,936.01
2023-05-01T12:43:43.743Z,936.04
2023-05-01T12:44:41.879Z,936.02
2023-05-01T12:45:41.879Z,936.05
2023-05-01T12:46:41.938Z,935.95
2023-05-01T12:47:41.987Z,935.96
2023-05-01T12:48:41.825Z,935.98
2023-05-01T12:49:41.807Z,935.95
2023-05-01T12:50:41.849Z,935.96
2023-05-01T12:51:41.946Z,935.99
2023-05-01T12:52:41.779Z,935.96
2023-05-01T12:53:41.778Z,936.01
2023-05-01T12:54:41.764Z,935.99
2023-05-01T12:55:41.803Z,935.96
2023-05-01T12:56:41.835Z,935.99
2023-05-01T12:57:41.762Z,935.98
2023-05-01T12:58:41.736Z,936.00
2023-05-01T12:59:41.792Z,936.00
2023-05-01T13:00:41.702Z,935.97
2023-05-01T13:01:41.753Z,935.97
2023-05-01T13:02:41.749Z,936.00
2023-05-01T13:03:41.659Z,935.93
2023-05-01T13:04:41.678Z,935.95
2023-05-01T13:05:41.674Z,935.91
2023-05-01T13:06:41.698Z,935.94
2023-05-01T13:07:41.627Z,935.94
2023-05-01T13:08:41.579Z,935.94
2023-05-01T13:09:41.609Z,935.88
2023-05-01T13:10:41.613Z,935.89
2023-05-01T13:11:41.558Z,935.89
2023-05-01T13:12:41.588Z,935.99
2023-05-01T13:13:41.583Z,935.90
2023-05-01T13:14:41.529Z,935.93
2023-05-01T13:15:41.510Z,935.97
2023-05-01T13:16:41.612Z,935.98
2023-05-01T13:17:41.548Z,935.95
2023-05-01T13:18:42.531Z,935.97
2023-05-01T13:19:41.464Z,935.96
2023-05-01T13:20:41.470Z,936.00
2023-05-01T13:21:41.487Z,935.92
2023-05-01T13:22:41.428Z,935.94
2023-05-01T13:23:41.438Z,935.94
2023-05-01T13:24:41.552Z,935.94
2023-05-01T13:25:41.436Z,935.99
2023-05-01T13:26:41.391Z,935.98
2023-05-01T13:27:41.396Z,935.95
2023-05-01T13:28:41.377Z,935.96
2023-05-01T13:29:41.502Z,935.93
2023-05-01T13:30:41.436Z,935.99
2023-05-01T13:31:41.461Z,935.99
2023-05-01T13:32:41.386Z,935.97
2023-05-01T13:33:41.333Z,936.02
2023-05-01T13:34:41.317Z,936.00
2023-05-01T13:35:41.339Z,936.03
2023-05-01T13:36:41.305Z,936.04
2023-05-01T13:37:41.278Z,936.03
2023-05-01T13:38:41.292Z,936.02
2023-05-01T13:39:41.266Z,936.03
2023-05-01T13:40:41.242Z,936.10
2023-05-01T13:41:41.234Z,936.09
2023-05-01T13:42:41.249Z,936.11
2023-05-01T13:43:41.270Z,936.11
2023-05-01T13:44:41.323Z,936.12
2023-05-01T13:45:41.308Z,936.12
2023-05-01T13:46:41.331Z,936.10
2023-05-01T13:47:41.198Z,936.06